This demonstration page uses our WeatherBlox Daily Observations layout. Learn more.

39.92423, -83.80882

Hourly Observations for July 6, 2018

Temp ( °F °C ) Dew Point ( °F °C ) Humidity (%) Winds ( mph kmh ) Pressure ( in mb ) Visibility ( mi km ) Precip ( " mm )
12:56 am 00:56 Clear 74 23.3 72 22.2 94 94 W 5 7 30.2 1023 10 16.0934 0 0
1:56 am 01:56 Clear 73 22.8 71 21.7 94 94 W 3 6 30.2 1023 10 16.0934 0 0
2:56 am 02:56 Clear 72 22.2 71 21.7 97 97 W 6 9 30.2 1023 10 16.0934 0 0
3:56 am 03:56 Clear 72 22.2 71 21.7 97 97 NW 5 7 30.2 1023 10 16.0934 0 0
4:56 am 04:56 Clear 72 22.2 72 22.2 100 100 NW 7 11 30.2 1023 7 11.26538 0 0
5:56 am 05:56 Mostly Clear with Mist and Fog 72 22.2 72 22.2 100 100 NW 6 9 30.21 1023 5 8.0467 0 0
6:56 am 06:56 Partly Cloudy with Mist and Fog 72 22.2 72 22.2 100 100 NW 6 9 30.22 1024 4 6.43736 0 0
7:56 am 07:56 Sunny 73 22.8 72 22.2 96 96 N 10 17 30.23 1024 8 12.87472 0 0
8:56 am 08:56 Sunny 72 22.2 66 18.9 82 82 NNE 15 24 30.25 1025 10 16.0934 0 0
9:56 am 09:56 Sunny 73 22.8 62 16.7 69 69 NE 21 33 30.26 1025 10 16.0934 0 0
10:56 am 10:56 Sunny 75 23.9 61 16.1 62 62 NE 15 24 30.28 1025 10 16.0934 0 0
11:56 am 11:56 Sunny 76 24.4 62 16.7 62 62 NNE 12 19 30.29 1026 10 16.0934 0 0
12:56 pm 12:56 Sunny 78 25.6 59 15 52 52 NE 12 19 30.29 1026 10 16.0934 0 0
1:56 pm 13:56 Sunny 79 26.1 62 16.7 56 56 N 14 22 30.27 1025 10 16.0934 0 0
2:56 pm 14:56 Sunny 80 26.7 60 15.6 51 51 NNE 14 22 30.26 1025 10 16.0934 0 0
3:56 pm 15:56 Sunny 80 26.7 60 15.6 51 51 NNE 15 24 30.24 1024 10 16.0934 0 0
4:56 pm 16:56 Sunny 79 26.1 59 15 50 50 NNE 17 28 30.23 1024 10 16.0934 0 0
5:56 pm 17:56 Sunny 77 25 55 12.8 47 47 N 17 28 30.24 1024 10 16.0934 0 0
6:56 pm 18:56 Sunny 75 23.9 55 12.8 50 50 NNE 16 26 30.24 1024 10 16.0934 0 0
7:56 pm 19:56 Sunny 73 22.8 56 13.3 55 55 NE 16 26 30.24 1024 10 16.0934 0 0
8:56 pm 20:56 Sunny 71 21.7 53 11.7 53 53 NNE 12 19 30.26 1025 10 16.0934 0 0
9:56 pm 21:56 Clear 66 18.9 52 11.1 61 61 NE 8 13 30.29 1026 10 16.0934 0 0
10:56 pm 22:56 Clear 60 15.6 52 11.1 75 75 NE 7 11 30.3 1026 10 16.0934 0 0
11:56 pm 23:56 Clear 58 14.4 51 10.6 78 78 NE 8 13 30.3 1026 10 16.0934 0 0

Powered by AerisWeather